Time,TemperatureF,DewpointF,PressureIn,WindDirection,WindDirectionDegrees,WindSpeedMPH,WindSpeedGustMPH,Humidity,HourlyPrecipIn,Conditions,Clouds,dailyrainin,SoftwareType,DateUTC
2013-03-03 00:00:00,25.1,22.0,29.93,NW,312,0.0,0.0,88,0.00,,,0.00,Wunderground v.1.13,2013-03-03 05:00:00,
2013-03-03 00:01:00,25.1,22.0,29.93,NW,312,0.0,0.0,88,0.00,,,0.00,Wunderground v.1.13,2013-03-03 05:01:00,
2013-03-03 00:03:00,25.1,22.0,29.93,NW,312,0.0,0.0,88,0.00,,,0.00,Wunderground v.1.13,2013-03-03 05:03:00,
2013-03-03 00:09:00,25.2,22.1,29.92,NW,312,0.0,0.0,88,0.00,,,0.00,Wunderground v.1.13,2013-03-03 05:09:00,
2013-03-03 00:14:00,25.1,22.0,29.92,NW,312,0.0,0.0,88,0.00,,,0.00,Wunderground v.1.13,2013-03-03 05:14:00,
2013-03-03 00:20:00,25.2,22.1,29.92,NW,312,0.0,0.0,88,0.00,,,0.00,Wunderground v.1.13,2013-03-03 05:20:00,
2013-03-03 00:26:00,25.2,22.1,29.92,NW,312,0.0,1.0,88,0.00,,,0.00,Wunderground v.1.13,2013-03-03 05:26:00,
2013-03-03 00:32:00,25.2,22.1,29.92,NW,312,0.0,0.0,88,0.00,,,0.00,Wunderground v.1.13,2013-03-03 05:32:00,
2013-03-03 00:37:00,25.3,22.2,29.92,NW,312,0.0,0.0,88,0.00,,,0.00,Wunderground v.1.13,2013-03-03 05:37:00,
2013-03-03 00:43:00,25.3,22.2,29.92,NW,312,0.0,0.0,88,0.00,,,0.00,Wunderground v.1.13,2013-03-03 05:43:00,
2013-03-03 00:49:00,25.4,22.3,29.92,NW,312,0.0,1.0,88,0.00,,,0.00,Wunderground v.1.13,2013-03-03 05:49:00,
2013-03-03 00:55:00,25.4,22.6,29.92,NW,312,0.0,0.0,89,0.00,,,0.00,Wunderground v.1.13,2013-03-03 05:55:00,
2013-03-03 01:01:00,25.4,22.6,29.92,NW,312,0.0,0.0,89,0.00,,,0.00,Wunderground v.1.13,2013-03-03 06:01:00,
2013-03-03 01:06:00,25.5,22.7,29.92,NW,312,0.0,2.0,89,0.00,,,0.00,Wunderground v.1.13,2013-03-03 06:06:00,
2013-03-03 01:12:00,25.5,22.7,29.92,NW,312,0.0,2.0,89,0.00,,,0.00,Wunderground v.1.13,2013-03-03 06:12:00,
2013-03-03 01:18:00,25.6,22.8,29.92,NW,312,0.0,2.0,89,0.00,,,0.00,Wunderground v.1.13,2013-03-03 06:18:00,
2013-03-03 01:24:00,25.6,22.8,29.92,NW,312,0.0,2.0,89,0.00,,,0.00,Wunderground v.1.13,2013-03-03 06:24:00,
2013-03-03 01:30:00,25.6,22.8,29.92,NW,312,0.0,2.0,89,0.00,,,0.00,Wunderground v.1.13,2013-03-03 06:30:00,
2013-03-03 01:36:00,25.6,22.8,29.92,NW,312,0.0,2.0,89,0.00,,,0.00,Wunderground v.1.13,2013-03-03 06:36:00,
2013-03-03 01:42:00,25.7,22.9,29.93,NW,311,0.0,2.0,89,0.00,,,0.00,Wunderground v.1.13,2013-03-03 06:42:00,
2013-03-03 01:48:00,25.7,22.9,29.92,NW,311,0.0,2.0,89,0.00,,,0.00,Wunderground v.1.13,2013-03-03 06:48:00,
2013-03-03 01:53:00,25.8,23.0,29.92,NW,311,0.0,2.0,89,0.00,,,0.00,Wunderground v.1.13,2013-03-03 06:53:00,
2013-03-03 01:59:00,25.8,23.0,29.92,NW,311,0.0,2.0,89,0.00,,,0.00,Wunderground v.1.13,2013-03-03 06:59:00,
2013-03-03 02:05:00,25.8,23.0,29.92,NW,311,0.0,2.0,89,0.00,,,0.00,Wunderground v.1.13,2013-03-03 07:05:00,
2013-03-03 02:11:00,25.8,23.0,29.92,NW,311,0.0,2.0,89,0.00,,,0.00,Wunderground v.1.13,2013-03-03 07:11:00,
2013-03-03 02:16:00,25.8,23.0,29.92,NW,311,0.0,2.0,89,0.00,,,0.00,Wunderground v.1.13,2013-03-03 07:16:00,
2013-03-03 02:22:00,25.9,23.1,29.91,NW,311,0.0,4.0,89,0.00,,,0.00,Wunderground v.1.13,2013-03-03 07:22:00,
2013-03-03 02:28:00,25.9,23.4,29.92,NW,311,0.0,2.0,90,0.00,,,0.00,Wunderground v.1.13,2013-03-03 07:28:00,
2013-03-03 02:34:00,25.9,23.4,29.91,NW,311,0.0,2.0,90,0.00,,,0.00,Wunderground v.1.13,2013-03-03 07:34:00,
2013-03-03 02:40:00,25.9,23.1,29.91,NW,311,0.0,2.0,89,0.00,,,0.00,Wunderground v.1.13,2013-03-03 07:40:00,
2013-03-03 02:45:00,25.9,23.4,29.91,NW,311,1.0,1.0,90,0.00,,,0.00,Wunderground v.1.13,2013-03-03 07:45:00,
2013-03-03 02:51:00,25.9,23.1,29.91,NW,311,0.0,2.0,89,0.00,,,0.00,Wunderground v.1.13,2013-03-03 07:51:00,
2013-03-03 02:57:00,25.9,23.1,29.91,NW,311,0.0,2.0,89,0.00,,,0.00,Wunderground v.1.13,2013-03-03 07:57:00,
2013-03-03 03:03:00,25.8,23.0,29.91,NW,311,0.0,3.0,89,0.00,,,0.00,Wunderground v.1.13,2013-03-03 08:03:00,
2013-03-03 03:08:00,25.8,23.0,29.91,NW,311,0.0,0.0,89,0.00,,,0.00,Wunderground v.1.13,2013-03-03 08:08:00,
2013-03-03 03:14:00,25.8,23.0,29.91,NW,311,0.0,0.0,89,0.00,,,0.00,Wunderground v.1.13,2013-03-03 08:14:00,
2013-03-03 03:20:00,25.8,23.0,29.91,NW,311,0.0,2.0,89,0.00,,,0.00,Wunderground v.1.13,2013-03-03 08:20:00,
2013-03-03 03:26:00,25.7,22.9,29.91,NW,311,1.0,1.0,89,0.00,,,0.00,Wunderground v.1.13,2013-03-03 08:26:00,
2013-03-03 03:32:00,25.7,22.9,29.91,NW,310,1.0,1.0,89,0.00,,,0.00,Wunderground v.1.13,2013-03-03 08:32:00,
2013-03-03 03:38:00,25.7,22.9,29.91,NW,310,0.0,0.0,89,0.00,,,0.00,Wunderground v.1.13,2013-03-03 08:38:00,
2013-03-03 03:44:00,25.6,22.8,29.91,NW,310,0.0,0.0,89,0.00,,,0.00,Wunderground v.1.13,2013-03-03 08:44:00,
2013-03-03 03:50:00,25.6,22.8,29.91,NW,310,0.0,0.0,89,0.00,,,0.00,Wunderground v.1.13,2013-03-03 08:50:00,
2013-03-03 03:55:00,25.6,22.8,29.91,NW,310,0.0,0.0,89,0.00,,,0.00,Wunderground v.1.13,2013-03-03 08:55:00,
2013-03-03 04:01:00,25.5,22.7,29.91,NW,310,0.0,0.0,89,0.00,,,0.00,Wunderground v.1.13,2013-03-03 09:01:00,
2013-03-03 04:07:00,25.4,22.6,29.91,NW,307,1.0,3.0,89,0.00,,,0.00,Wunderground v.1.13,2013-03-03 09:07:00,
2013-03-03 04:13:00,25.4,22.6,29.91,NW,307,1.0,2.0,89,0.00,,,0.00,Wunderground v.1.13,2013-03-03 09:13:00,
2013-03-03 04:19:00,25.4,22.6,29.91,NW,308,0.0,5.0,89,0.00,,,0.00,Wunderground v.1.13,2013-03-03 09:19:00,
2013-03-03 04:25:00,25.3,22.2,29.91,NW,307,1.0,1.0,88,0.00,,,0.00,Wunderground v.1.13,2013-03-03 09:25:00,
2013-03-03 04:30:00,25.3,22.2,29.91,NW,307,1.0,1.0,88,0.00,,,0.00,Wunderground v.1.13,2013-03-03 09:30:00,
2013-03-03 04:36:00,25.3,22.2,29.91,NW,307,0.0,2.0,88,0.00,,,0.00,Wunderground v.1.13,2013-03-03 09:36:00,
2013-03-03 04:42:00,25.3,22.2,29.91,NW,307,0.0,2.0,88,0.00,,,0.00,Wunderground v.1.13,2013-03-03 09:42:00,
2013-03-03 04:47:00,25.2,22.1,29.91,NW,304,1.0,2.0,88,0.00,,,0.00,Wunderground v.1.13,2013-03-03 09:47:00,
2013-03-03 04:53:00,25.2,22.1,29.91,WNW,293,1.0,4.0,88,0.00,,,0.00,Wunderground v.1.13,2013-03-03 09:53:00,
2013-03-03 04:59:00,25.2,22.1,29.91,WNW,293,1.0,2.0,88,0.00,,,0.00,Wunderground v.1.13,2013-03-03 09:59:00,
2013-03-03 05:04:00,25.1,22.0,29.91,WNW,292,0.0,3.0,88,0.00,,,0.00,Wunderground v.1.13,2013-03-03 10:04:00,
2013-03-03 05:10:00,25.1,22.0,29.92,WNW,287,0.0,0.0,88,0.00,,,0.00,Wunderground v.1.13,2013-03-03 10:10:00,
2013-03-03 05:15:00,25.1,22.0,29.92,WNW,292,0.0,6.0,88,0.00,,,0.00,Wunderground v.1.13,2013-03-03 10:15:00,
2013-03-03 05:20:00,25.0,21.9,29.92,WNW,294,1.0,1.0,88,0.00,,,0.00,Wunderground v.1.13,2013-03-03 10:20:00,
2013-03-03 05:25:00,25.0,21.9,29.92,WNW,294,1.0,1.0,88,0.00,,,0.00,Wunderground v.1.13,2013-03-03 10:25:00,
2013-03-03 05:30:00,25.0,21.9,29.92,WNW,294,0.0,0.0,88,0.00,,,0.00,Wunderground v.1.13,2013-03-03 10:30:00,
2013-03-03 05:35:00,25.0,21.9,29.92,WNW,294,0.0,0.0,88,0.00,,,0.00,Wunderground v.1.13,2013-03-03 10:35:00,
2013-03-03 05:41:00,25.0,21.9,29.92,WNW,294,0.0,0.0,88,0.00,,,0.00,Wunderground v.1.13,2013-03-03 10:41:00,
2013-03-03 05:47:00,25.0,21.9,29.92,WNW,294,0.0,0.0,88,0.00,,,0.00,Wunderground v.1.13,2013-03-03 10:47:00,
2013-03-03 05:53:00,24.9,21.8,29.92,WNW,294,0.0,0.0,88,0.00,,,0.00,Wunderground v.1.13,2013-03-03 10:53:00,
2013-03-03 05:59:00,24.9,22.1,29.92,WNW,294,0.0,2.0,89,0.00,,,0.00,Wunderground v.1.13,2013-03-03 10:59:00,
2013-03-03 06:04:00,24.9,22.1,29.92,WNW,294,0.0,3.0,89,0.00,,,0.00,Wunderground v.1.13,2013-03-03 11:04:00,
2013-03-03 06:10:00,24.9,22.1,29.92,WNW,294,0.0,2.0,89,0.00,,,0.00,Wunderground v.1.13,2013-03-03 11:10:00,
2013-03-03 06:16:00,24.9,22.1,29.92,WNW,294,0.0,2.0,89,0.00,,,0.00,Wunderground v.1.13,2013-03-03 11:16:00,
2013-03-03 06:22:00,24.8,22.0,29.93,WNW,296,0.0,3.0,89,0.00,,,0.00,Wunderground v.1.13,2013-03-03 11:22:00,
2013-03-03 06:27:00,24.7,21.7,29.93,WNW,292,1.0,3.0,88,0.00,,,0.00,Wunderground v.1.13,2013-03-03 11:27:00,
2013-03-03 06:33:00,24.6,21.6,29.93,NNW,342,1.0,10.0,88,0.00,,,0.00,Wunderground v.1.13,2013-03-03 11:33:00,
2013-03-03 06:39:00,24.5,21.5,29.93,NW,315,1.0,3.0,88,0.00,,,0.00,Wunderground v.1.13,2013-03-03 11:39:00,
2013-03-03 06:45:00,24.4,21.1,29.93,WNW,285,1.0,7.0,87,0.00,,,0.00,Wunderground v.1.13,2013-03-03 11:45:00,
2013-03-03 06:50:00,24.4,21.1,29.93,WNW,290,1.0,5.0,87,0.00,,,0.00,Wunderground v.1.13,2013-03-03 11:50:00,
2013-03-03 06:55:00,24.4,21.1,29.93,WNW,290,1.0,1.0,87,0.00,,,0.00,Wunderground v.1.13,2013-03-03 11:55:00,
2013-03-03 07:01:00,24.4,20.8,29.93,WNW,291,0.0,2.0,86,0.00,,,0.00,Wunderground v.1.13,2013-03-03 12:01:00,
2013-03-03 07:07:00,24.3,20.7,29.93,WNW,289,1.0,3.0,86,0.00,,,0.00,Wunderground v.1.13,2013-03-03 12:07:00,
2013-03-03 07:12:00,24.3,20.4,29.94,WNW,288,0.0,4.0,85,0.00,,,0.00,Wunderground v.1.13,2013-03-03 12:12:00,
2013-03-03 07:18:00,24.3,20.4,29.94,WNW,288,0.0,3.0,85,0.00,,,0.00,Wunderground v.1.13,2013-03-03 12:18:00,
2013-03-03 07:23:00,24.2,20.3,29.94,WNW,288,0.0,3.0,85,0.00,,,0.00,Wunderground v.1.13,2013-03-03 12:23:00,
2013-03-03 07:29:00,24.2,20.3,29.94,WNW,288,0.0,3.0,85,0.00,,,0.00,Wunderground v.1.13,2013-03-03 12:29:00,
2013-03-03 07:35:00,24.1,20.0,29.93,WNW,286,0.0,3.0,84,0.00,,,0.00,Wunderground v.1.13,2013-03-03 12:35:00,
2013-03-03 07:41:00,24.2,20.1,29.93,WNW,284,1.0,3.0,84,0.00,,,0.00,Wunderground v.1.13,2013-03-03 12:41:00,
2013-03-03 07:46:00,24.3,20.2,29.93,WNW,284,0.0,3.0,84,0.00,,,0.00,Wunderground v.1.13,2013-03-03 12:46:00,
2013-03-03 07:52:00,24.4,20.3,29.94,WNW,284,0.0,3.0,84,0.00,,,0.00,Wunderground v.1.13,2013-03-03 12:52:00,
2013-03-03 07:58:00,24.5,20.4,29.94,WNW,284,0.0,3.0,84,0.00,,,0.00,Wunderground v.1.13,2013-03-03 12:58:00,
2013-03-03 08:04:00,24.7,20.6,29.94,WNW,284,0.0,3.0,84,0.00,,,0.00,Wunderground v.1.13,2013-03-03 13:04:00,
2013-03-03 08:10:00,24.8,20.4,29.95,WNW,286,1.0,1.0,83,0.00,,,0.00,Wunderground v.1.13,2013-03-03 13:10:00,
2013-03-03 08:16:00,24.9,20.5,29.95,WNW,288,1.0,2.0,83,0.00,,,0.00,Wunderground v.1.13,2013-03-03 13:16:00,
2013-03-03 08:22:00,25.1,20.7,29.94,WNW,296,1.0,2.0,83,0.00,,,0.00,Wunderground v.1.13,2013-03-03 13:22:00,
2013-03-03 08:28:00,25.2,20.8,29.94,WNW,296,1.0,2.0,83,0.00,,,0.00,Wunderground v.1.13,2013-03-03 13:28:00,
2013-03-03 08:33:00,25.2,20.8,29.94,WNW,295,1.0,2.0,83,0.00,,,0.00,Wunderground v.1.13,2013-03-03 13:33:00,
2013-03-03 08:38:00,25.3,20.9,29.94,WNW,296,1.0,3.0,83,0.00,,,0.00,Wunderground v.1.13,2013-03-03 13:38:00,
2013-03-03 08:44:00,25.6,21.2,29.94,WNW,282,1.0,2.0,83,0.00,,,0.00,Wunderground v.1.13,2013-03-03 13:44:00,
2013-03-03 08:50:00,25.7,21.0,29.94,West,261,0.0,2.0,82,0.00,,,0.00,Wunderground v.1.13,2013-03-03 13:50:00,
2013-03-03 08:56:00,25.8,20.8,29.94,WNW,296,2.0,2.0,81,0.00,,,0.00,Wunderground v.1.13,2013-03-03 13:56:00,
2013-03-03 09:02:00,25.8,20.5,29.94,WSW,245,2.0,5.0,80,0.00,,,0.00,Wunderground v.1.13,2013-03-03 14:02:00,
2013-03-03 09:08:00,25.7,20.1,29.94,North,360,2.0,8.0,79,0.00,,,0.00,Wunderground v.1.13,2013-03-03 14:08:00,
2013-03-03 09:14:00,25.5,19.9,29.94,NNW,347,1.0,8.0,79,0.00,,,0.00,Wunderground v.1.13,2013-03-03 14:14:00,
2013-03-03 09:20:00,25.5,19.3,29.94,NW,315,1.0,1.0,77,0.00,,,0.00,Wunderground v.1.13,2013-03-03 14:20:00,
2013-03-03 09:25:00,25.5,19.3,29.94,NW,309,1.0,8.0,77,0.00,,,0.00,Wunderground v.1.13,2013-03-03 14:25:00,
2013-03-03 09:31:00,25.6,19.1,29.94,WNW,282,1.0,2.0,76,0.00,,,0.00,Wunderground v.1.13,2013-03-03 14:31:00,
2013-03-03 09:37:00,25.6,19.1,29.94,North,355,2.0,8.0,76,0.00,,,0.00,Wunderground v.1.13,2013-03-03 14:37:00,
2013-03-03 09:43:00,25.6,19.1,29.94,NNW,336,2.0,8.0,76,0.00,,,0.00,Wunderground v.1.13,2013-03-03 14:43:00,
2013-03-03 09:49:00,25.7,19.2,29.94,NNW,331,0.0,8.0,76,0.00,,,0.00,Wunderground v.1.13,2013-03-03 14:49:00,
2013-03-03 09:55:00,25.8,19.3,29.94,NNW,329,1.0,1.0,76,0.00,,,0.00,Wunderground v.1.13,2013-03-03 14:55:00,
2013-03-03 10:01:00,25.6,19.4,29.94,NW,313,1.0,8.0,77,0.00,,,0.00,Wunderground v.1.13,2013-03-03 15:01:00,
2013-03-03 10:07:00,25.8,19.6,29.94,West,275,1.0,5.0,77,0.00,,,0.00,Wunderground v.1.13,2013-03-03 15:07:00,
2013-03-03 10:13:00,25.8,19.0,29.95,West,275,1.0,5.0,75,0.00,,,0.00,Wunderground v.1.13,2013-03-03 15:13:00,
2013-03-03 10:18:00,26.1,19.6,29.95,West,276,1.0,5.0,76,0.00,,,0.00,Wunderground v.1.13,2013-03-03 15:18:00,
2013-03-03 10:24:00,26.2,19.7,29.95,WSW,252,1.0,5.0,76,0.00,,,0.00,Wunderground v.1.13,2013-03-03 15:24:00,
2013-03-03 10:30:00,26.2,19.4,29.94,West,262,1.0,5.0,75,0.00,,,0.00,Wunderground v.1.13,2013-03-03 15:30:00,
2013-03-03 10:36:00,26.1,19.9,29.94,West,262,1.0,5.0,77,0.00,,,0.00,Wunderground v.1.13,2013-03-03 15:36:00,
2013-03-03 10:42:00,26.2,19.4,29.95,West,279,1.0,5.0,75,0.00,,,0.00,Wunderground v.1.13,2013-03-03 15:42:00,
2013-03-03 10:48:00,26.1,19.9,29.95,West,279,1.0,5.0,77,0.00,,,0.00,Wunderground v.1.13,2013-03-03 15:48:00,
2013-03-03 10:54:00,26.1,19.9,29.95,West,279,1.0,5.0,77,0.00,,,0.00,Wunderground v.1.13,2013-03-03 15:54:00,
2013-03-03 10:59:00,26.1,20.2,29.95,West,279,1.0,5.0,78,0.00,,,0.00,Wunderground v.1.13,2013-03-03 15:59:00,
2013-03-03 11:05:00,26.2,20.6,29.95,West,279,0.0,1.0,79,0.00,,,0.00,Wunderground v.1.13,2013-03-03 16:05:00,
2013-03-03 11:10:00,26.1,20.8,29.95,West,279,0.0,1.0,80,0.00,,,0.00,Wunderground v.1.13,2013-03-03 16:10:00,
2013-03-03 11:15:00,26.3,20.7,29.95,West,279,0.0,1.0,79,0.00,,,0.00,Wunderground v.1.13,2013-03-03 16:15:00,
2013-03-03 11:21:00,26.4,20.5,29.95,West,279,0.0,1.0,78,0.00,,,0.00,Wunderground v.1.13,2013-03-03 16:21:00,
2013-03-03 11:27:00,26.3,20.7,29.95,West,279,1.0,1.0,79,0.00,,,0.00,Wunderground v.1.13,2013-03-03 16:27:00,
2013-03-03 11:32:00,26.2,20.3,29.95,West,279,1.0,1.0,78,0.00,,,0.00,Wunderground v.1.13,2013-03-03 16:32:00,
2013-03-03 11:38:00,26.5,20.6,29.95,West,279,0.0,1.0,78,0.00,,,0.00,Wunderground v.1.13,2013-03-03 16:38:00,
2013-03-03 11:44:00,26.4,20.5,29.95,WSW,258,1.0,6.0,78,0.00,,,0.00,Wunderground v.1.13,2013-03-03 16:44:00,
2013-03-03 11:50:00,26.4,20.5,29.95,WSW,258,1.0,1.0,78,0.00,,,0.00,Wunderground v.1.13,2013-03-03 16:50:00,
2013-03-03 11:56:00,26.9,21.0,29.95,WSW,258,1.0,1.0,78,0.00,,,0.00,Wunderground v.1.13,2013-03-03 16:56:00,
2013-03-03 12:01:00,27.1,21.2,29.95,West,259,1.0,1.0,78,0.00,,,0.00,Wunderground v.1.13,2013-03-03 17:01:00,
2013-03-03 12:06:00,27.1,20.8,29.94,West,263,1.0,3.0,77,0.00,,,0.00,Wunderground v.1.13,2013-03-03 17:06:00,
2013-03-03 12:12:00,26.8,20.2,29.94,WSW,255,1.0,2.0,76,0.00,,,0.00,Wunderground v.1.13,2013-03-03 17:12:00,
2013-03-03 12:18:00,27.1,20.5,29.94,WNW,296,2.0,2.0,76,0.00,,,0.00,Wunderground v.1.13,2013-03-03 17:18:00,
2013-03-03 12:23:00,27.6,21.0,29.94,West,270,2.0,2.0,76,0.00,,,0.00,Wunderground v.1.13,2013-03-03 17:23:00,
2013-03-03 12:29:00,27.9,21.0,29.93,WSW,247,1.0,3.0,75,0.00,,,0.00,Wunderground v.1.13,2013-03-03 17:29:00,
2013-03-03 12:35:00,28.4,21.2,29.93,WSW,254,1.0,2.0,74,0.00,,,0.00,Wunderground v.1.13,2013-03-03 17:35:00,
2013-03-03 12:41:00,28.9,21.3,29.93,WSW,258,1.0,2.0,73,0.00,,,0.00,Wunderground v.1.13,2013-03-03 17:41:00,
2013-03-03 12:46:00,29.1,21.8,29.93,WSW,257,1.0,4.0,74,0.00,,,0.00,Wunderground v.1.13,2013-03-03 17:46:00,
2013-03-03 12:52:00,29.0,21.4,29.92,WNW,301,2.0,4.0,73,0.00,,,0.00,Wunderground v.1.13,2013-03-03 17:52:00,
2013-03-03 12:57:00,28.9,20.7,29.92,WNW,282,2.0,2.0,71,0.00,,,0.00,Wunderground v.1.13,2013-03-03 17:57:00,
2013-03-03 13:03:00,29.0,21.1,29.92,WSW,242,2.0,11.0,72,0.00,,,0.00,Wunderground v.1.13,2013-03-03 18:03:00,
2013-03-03 13:09:00,29.1,21.5,29.92,West,276,3.0,10.0,73,0.00,,,0.00,Wunderground v.1.13,2013-03-03 18:09:00,
2013-03-03 13:15:00,28.5,21.3,29.91,NW,308,2.0,10.0,74,0.00,,,0.00,Wunderground v.1.13,2013-03-03 18:15:00,
2013-03-03 13:21:00,28.0,20.8,29.92,NNW,331,3.0,10.0,74,0.00,,,0.00,Wunderground v.1.13,2013-03-03 18:21:00,
2013-03-03 13:26:00,27.9,21.0,29.91,North,355,2.0,10.0,75,0.00,,,0.00,Wunderground v.1.13,2013-03-03 18:26:00,
2013-03-03 13:32:00,28.4,22.1,29.91,WNW,285,1.0,10.0,77,0.00,,,0.00,Wunderground v.1.13,2013-03-03 18:32:00,
2013-03-03 13:38:00,28.2,21.0,29.91,WNW,302,2.0,10.0,74,0.00,,,0.00,Wunderground v.1.13,2013-03-03 18:38:00,
2013-03-03 13:44:00,28.4,21.2,29.91,WSW,237,2.0,10.0,74,0.00,,,0.00,Wunderground v.1.13,2013-03-03 18:44:00,
2013-03-03 13:49:00,28.3,20.7,29.91,SW,235,2.0,10.0,73,0.00,,,0.00,Wunderground v.1.13,2013-03-03 18:49:00,
2013-03-03 13:55:00,28.9,21.7,29.91,WSW,241,2.0,10.0,74,0.00,,,0.00,Wunderground v.1.13,2013-03-03 18:55:00,
2013-03-03 14:01:00,28.5,21.3,29.91,WSW,244,2.0,10.0,74,0.00,,,0.00,Wunderground v.1.13,2013-03-03 19:01:00,
2013-03-03 14:07:00,28.6,21.7,29.91,WSW,249,2.0,3.0,75,0.00,,,0.00,Wunderground v.1.13,2013-03-03 19:07:00,
2013-03-03 14:12:00,28.5,21.3,29.91,SW,230,2.0,2.0,74,0.00,,,0.00,Wunderground v.1.13,2013-03-03 19:12:00,
2013-03-03 14:18:00,28.3,20.7,29.92,NW,304,3.0,3.0,73,0.00,,,0.00,Wunderground v.1.13,2013-03-03 19:18:00,
2013-03-03 14:24:00,28.3,21.1,29.92,WSW,250,3.0,6.0,74,0.00,,,0.00,Wunderground v.1.13,2013-03-03 19:24:00,
2013-03-03 14:30:00,28.4,21.2,29.92,SW,223,3.0,3.0,74,0.00,,,0.00,Wunderground v.1.13,2013-03-03 19:30:00,
2013-03-03 14:35:00,28.4,21.5,29.92,WSW,254,3.0,3.0,75,0.00,,,0.00,Wunderground v.1.13,2013-03-03 19:35:00,
2013-03-03 14:41:00,28.5,21.6,29.92,WNW,288,2.0,2.0,75,0.00,,,0.00,Wunderground v.1.13,2013-03-03 19:41:00,
2013-03-03 14:48:00,28.2,21.6,29.92,West,263,1.0,4.0,76,0.00,,,0.00,Wunderground v.1.13,2013-03-03 19:48:00,
2013-03-03 14:54:00,27.5,21.5,29.92,WSW,241,2.0,7.0,78,0.00,,,0.00,Wunderground v.1.13,2013-03-03 19:54:00,
2013-03-03 15:00:00,27.2,21.5,29.92,WNW,298,2.0,2.0,79,0.00,,,0.00,Wunderground v.1.13,2013-03-03 20:00:00,
2013-03-03 15:05:00,27.3,22.5,29.92,WNW,297,2.0,2.0,82,0.00,,,0.00,Wunderground v.1.13,2013-03-03 20:05:00,
2013-03-03 15:10:00,27.6,23.1,29.92,WNW,294,2.0,2.0,83,0.00,,,0.00,Wunderground v.1.13,2013-03-03 20:10:00,
2013-03-03 15:16:00,27.7,22.6,29.92,NNW,329,1.0,7.0,81,0.00,,,0.00,Wunderground v.1.13,2013-03-03 20:16:00,
2013-03-03 15:22:00,27.6,22.8,29.92,WNW,288,1.0,7.0,82,0.00,,,0.00,Wunderground v.1.13,2013-03-03 20:22:00,
2013-03-03 15:28:00,27.5,24.7,29.92,WNW,291,1.0,7.0,89,0.00,,,0.00,Wunderground v.1.13,2013-03-03 20:28:00,
2013-03-03 15:33:00,27.6,23.1,29.92,WSW,242,1.0,7.0,83,0.00,,,0.00,Wunderground v.1.13,2013-03-03 20:33:00,
2013-03-03 15:39:00,27.3,22.8,29.92,WSW,245,1.0,7.0,83,0.00,,,0.00,Wunderground v.1.13,2013-03-03 20:39:00,
2013-03-03 15:45:00,27.6,23.4,29.92,WSW,250,1.0,1.0,84,0.00,,,0.00,Wunderground v.1.13,2013-03-03 20:45:00,
2013-03-03 15:50:00,27.7,22.9,29.92,West,260,2.0,2.0,82,0.00,,,0.00,Wunderground v.1.13,2013-03-03 20:50:00,
2013-03-03 15:56:00,27.9,23.1,29.93,WSW,254,2.0,7.0,82,0.00,,,0.00,Wunderground v.1.13,2013-03-03 20:56:00,
2013-03-03 16:01:00,27.8,22.7,29.93,WSW,258,2.0,7.0,81,0.00,,,0.00,Wunderground v.1.13,2013-03-03 21:01:00,
2013-03-03 16:07:00,27.4,22.3,29.93,WSW,251,2.0,5.0,81,0.00,,,0.00,Wunderground v.1.13,2013-03-03 21:07:00,
2013-03-03 16:13:00,27.2,22.1,29.93,WNW,297,2.0,5.0,81,0.00,,,0.00,Wunderground v.1.13,2013-03-03 21:13:00,
2013-03-03 16:19:00,27.0,21.9,29.93,NNW,331,2.0,5.0,81,0.00,,,0.00,Wunderground v.1.13,2013-03-03 21:19:00,
2013-03-03 16:25:00,27.1,22.6,29.93,NW,325,1.0,5.0,83,0.00,,,0.00,Wunderground v.1.13,2013-03-03 21:25:00,
2013-03-03 16:30:00,27.1,22.6,29.93,WNW,284,0.0,5.0,83,0.00,,,0.00,Wunderground v.1.13,2013-03-03 21:30:00,
2013-03-03 16:35:00,27.0,21.9,29.93,West,262,1.0,5.0,81,0.00,,,0.00,Wunderground v.1.13,2013-03-03 21:35:00,
2013-03-03 16:41:00,26.9,22.1,29.93,West,269,1.0,5.0,82,0.00,,,0.00,Wunderground v.1.13,2013-03-03 21:41:00,
2013-03-03 16:47:00,26.7,22.2,29.93,West,269,1.0,5.0,83,0.00,,,0.00,Wunderground v.1.13,2013-03-03 21:47:00,
2013-03-03 16:53:00,26.7,22.5,29.93,West,269,1.0,5.0,84,0.00,,,0.00,Wunderground v.1.13,2013-03-03 21:53:00,
2013-03-03 16:58:00,26.7,22.5,29.93,West,269,1.0,5.0,84,0.00,,,0.00,Wunderground v.1.13,2013-03-03 21:58:00,
2013-03-03 17:04:00,26.7,22.2,29.94,SW,232,1.0,5.0,83,0.00,,,0.00,Wunderground v.1.13,2013-03-03 22:04:00,
2013-03-03 17:10:00,26.7,22.2,29.94,SW,231,1.0,1.0,83,0.00,,,0.00,Wunderground v.1.13,2013-03-03 22:10:00,
2013-03-03 17:16:00,26.8,22.0,29.94,SW,233,1.0,6.0,82,0.00,,,0.00,Wunderground v.1.13,2013-03-03 22:16:00,
2013-03-03 17:22:00,26.7,21.9,29.94,SW,232,1.0,3.0,82,0.00,,,0.00,Wunderground v.1.13,2013-03-03 22:22:00,
2013-03-03 17:27:00,26.7,21.7,29.94,SW,232,0.0,2.0,81,0.00,,,0.00,Wunderground v.1.13,2013-03-03 22:27:00,
2013-03-03 17:32:00,26.7,21.9,29.94,SW,232,0.0,3.0,82,0.00,,,0.00,Wunderground v.1.13,2013-03-03 22:32:00,
2013-03-03 17:38:00,26.6,21.6,29.95,WSW,241,1.0,3.0,81,0.00,,,0.00,Wunderground v.1.13,2013-03-03 22:38:00,
2013-03-03 17:44:00,26.5,21.5,29.95,WNW,285,1.0,5.0,81,0.00,,,0.00,Wunderground v.1.13,2013-03-03 22:44:00,
2013-03-03 17:49:00,26.4,21.4,29.95,West,276,1.0,2.0,81,0.00,,,0.00,Wunderground v.1.13,2013-03-03 22:49:00,
2013-03-03 17:54:00,26.3,21.3,29.95,West,275,1.0,5.0,81,0.00,,,0.00,Wunderground v.1.13,2013-03-03 22:54:00,
2013-03-03 17:59:00,26.4,21.4,29.95,West,275,1.0,3.0,81,0.00,,,0.00,Wunderground v.1.13,2013-03-03 22:59:00,
2013-03-03 18:05:00,26.3,21.3,29.95,West,278,1.0,1.0,81,0.00,,,0.00,Wunderground v.1.13,2013-03-03 23:05:00,
2013-03-03 18:11:00,26.3,21.3,29.95,West,278,1.0,1.0,81,0.00,,,0.00,Wunderground v.1.13,2013-03-03 23:11:00,
2013-03-03 18:17:00,26.2,21.2,29.95,West,278,0.0,2.0,81,0.00,,,0.00,Wunderground v.1.13,2013-03-03 23:17:00,
2013-03-03 18:23:00,26.1,21.1,29.95,West,278,0.0,1.0,81,0.00,,,0.00,Wunderground v.1.13,2013-03-03 23:23:00,
2013-03-03 18:29:00,26.1,21.1,29.95,West,278,0.0,0.0,81,0.00,,,0.00,Wunderground v.1.13,2013-03-03 23:29:00,
2013-03-03 18:35:00,26.1,21.1,29.96,West,275,0.0,0.0,81,0.00,,,0.00,Wunderground v.1.13,2013-03-03 23:35:00,
2013-03-03 18:41:00,26.0,21.0,29.96,West,275,0.0,0.0,81,0.00,,,0.00,Wunderground v.1.13,2013-03-03 23:41:00,
2013-03-03 18:47:00,26.0,20.7,29.96,West,277,0.0,0.0,80,0.00,,,0.00,Wunderground v.1.13,2013-03-03 23:47:00,
2013-03-03 18:52:00,26.0,20.7,29.96,West,269,0.0,1.0,80,0.00,,,0.00,Wunderground v.1.13,2013-03-03 23:52:00,
2013-03-03 18:58:00,26.0,20.4,29.96,West,260,1.0,2.0,79,0.00,,,0.00,Wunderground v.1.13,2013-03-03 23:58:00,
2013-03-03 19:04:00,25.9,20.0,29.97,West,259,1.0,2.0,78,0.00,,,0.00,Wunderground v.1.13,2013-03-04 00:04:00,
2013-03-03 19:10:00,26.0,20.4,29.96,West,259,1.0,1.0,79,0.00,,,0.00,Wunderground v.1.13,2013-03-04 00:10:00,
2013-03-03 19:15:00,26.0,20.1,29.96,WSW,258,1.0,1.0,78,0.00,,,0.00,Wunderground v.1.13,2013-03-04 00:15:00,
2013-03-03 19:20:00,25.9,20.0,29.97,WSW,258,0.0,3.0,78,0.00,,,0.00,Wunderground v.1.13,2013-03-04 00:20:00,
2013-03-03 19:26:00,25.9,20.0,29.97,West,261,1.0,3.0,78,0.00,,,0.00,Wunderground v.1.13,2013-03-04 00:26:00,
2013-03-03 19:32:00,25.8,19.9,29.97,West,261,1.0,3.0,78,0.00,,,0.00,Wunderground v.1.13,2013-03-04 00:32:00,
2013-03-03 19:38:00,25.8,19.6,29.97,West,264,1.0,3.0,77,0.00,,,0.00,Wunderground v.1.13,2013-03-04 00:38:00,
2013-03-03 19:43:00,25.8,19.6,29.97,West,266,1.0,6.0,77,0.00,,,0.00,Wunderground v.1.13,2013-03-04 00:43:00,
2013-03-03 19:49:00,25.8,19.6,29.97,West,266,1.0,3.0,77,0.00,,,0.00,Wunderground v.1.13,2013-03-04 00:49:00,
2013-03-03 19:54:00,25.8,19.6,29.97,West,266,1.0,3.0,77,0.00,,,0.00,Wunderground v.1.13,2013-03-04 00:54:00,
2013-03-03 20:00:00,25.8,19.6,29.97,West,266,0.0,3.0,77,0.00,,,0.00,Wunderground v.1.13,2013-03-04 01:00:00,
2013-03-03 20:05:00,25.8,19.6,29.98,West,266,0.0,2.0,77,0.00,,,0.00,Wunderground v.1.13,2013-03-04 01:05:00,
2013-03-03 20:11:00,25.7,19.5,29.98,West,266,0.0,2.0,77,0.00,,,0.00,Wunderground v.1.13,2013-03-04 01:11:00,
2013-03-03 20:16:00,25.7,19.8,29.98,West,266,0.0,2.0,78,0.00,,,0.00,Wunderground v.1.13,2013-03-04 01:16:00,
2013-03-03 20:22:00,25.7,19.8,29.99,West,265,0.0,2.0,78,0.00,,,0.00,Wunderground v.1.13,2013-03-04 01:22:00,
2013-03-03 20:28:00,25.7,20.1,29.99,West,263,1.0,2.0,79,0.00,,,0.00,Wunderground v.1.13,2013-03-04 01:28:00,
2013-03-03 20:34:00,25.7,20.1,29.99,West,262,1.0,2.0,79,0.00,,,0.00,Wunderground v.1.13,2013-03-04 01:34:00,
2013-03-03 20:39:00,25.6,20.3,29.99,West,262,1.0,2.0,80,0.00,,,0.00,Wunderground v.1.13,2013-03-04 01:39:00,
2013-03-03 20:45:00,25.6,20.3,29.99,West,262,0.0,2.0,80,0.00,,,0.00,Wunderground v.1.13,2013-03-04 01:45:00,
2013-03-03 20:51:00,25.5,20.5,29.99,West,262,0.0,2.0,81,0.00,,,0.00,Wunderground v.1.13,2013-03-04 01:51:00,
2013-03-03 20:57:00,25.4,20.4,29.99,West,262,0.0,2.0,81,0.00,,,0.00,Wunderground v.1.13,2013-03-04 01:57:00,
2013-03-03 21:03:00,25.4,20.7,29.99,West,262,0.0,2.0,82,0.00,,,0.00,Wunderground v.1.13,2013-03-04 02:03:00,
2013-03-03 21:09:00,25.3,20.6,29.99,West,262,0.0,0.0,82,0.00,,,0.00,Wunderground v.1.13,2013-03-04 02:09:00,
2013-03-03 21:15:00,25.3,20.9,29.99,West,262,0.0,0.0,83,0.00,,,0.00,Wunderground v.1.13,2013-03-04 02:15:00,
2013-03-03 21:21:00,25.2,20.8,30.00,West,262,0.0,0.0,83,0.00,,,0.00,Wunderground v.1.13,2013-03-04 02:21:00,
2013-03-03 21:26:00,25.2,21.0,30.00,West,262,0.0,0.0,84,0.00,,,0.00,Wunderground v.1.13,2013-03-04 02:26:00,
2013-03-03 21:32:00,25.1,20.9,30.00,West,262,0.0,0.0,84,0.00,,,0.00,Wunderground v.1.13,2013-03-04 02:32:00,
2013-03-03 21:37:00,25.1,21.2,30.00,West,262,0.0,0.0,85,0.00,,,0.00,Wunderground v.1.13,2013-03-04 02:37:00,
2013-03-03 21:43:00,25.0,21.1,30.00,West,262,0.0,2.0,85,0.00,,,0.00,Wunderground v.1.13,2013-03-04 02:43:00,
2013-03-03 21:49:00,24.9,21.3,29.99,West,262,0.0,0.0,86,0.00,,,0.00,Wunderground v.1.13,2013-03-04 02:49:00,
2013-03-03 21:55:00,24.8,21.2,29.99,West,261,0.0,0.0,86,0.00,,,0.00,Wunderground v.1.13,2013-03-04 02:55:00,
2013-03-03 22:00:00,24.8,21.2,30.00,West,261,1.0,1.0,86,0.00,,,0.00,Wunderground v.1.13,2013-03-04 03:00:00,
2013-03-03 22:05:00,24.7,21.1,29.99,West,261,1.0,1.0,86,0.00,,,0.00,Wunderground v.1.13,2013-03-04 03:05:00,
2013-03-03 22:11:00,24.5,20.9,30.00,West,261,0.0,0.0,86,0.00,,,0.00,Wunderground v.1.13,2013-03-04 03:11:00,
2013-03-03 22:17:00,24.4,21.1,29.99,West,259,1.0,6.0,87,0.00,,,0.00,Wunderground v.1.13,2013-03-04 03:17:00,
2013-03-03 22:23:00,24.4,21.1,29.99,West,259,1.0,1.0,87,0.00,,,0.00,Wunderground v.1.13,2013-03-04 03:23:00,
2013-03-03 22:28:00,24.3,21.0,29.99,West,263,0.0,1.0,87,0.00,,,0.00,Wunderground v.1.13,2013-03-04 03:28:00,
2013-03-03 22:33:00,24.3,21.0,29.99,West,260,1.0,2.0,87,0.00,,,0.00,Wunderground v.1.13,2013-03-04 03:33:00,
2013-03-03 22:39:00,24.2,20.9,29.99,West,263,1.0,3.0,87,0.00,,,0.00,Wunderground v.1.13,2013-03-04 03:39:00,
2013-03-03 22:44:00,24.2,20.9,29.99,West,259,1.0,5.0,87,0.00,,,0.00,Wunderground v.1.13,2013-03-04 03:44:00,
2013-03-03 22:50:00,24.1,20.8,30.00,West,259,1.0,1.0,87,0.00,,,0.00,Wunderground v.1.13,2013-03-04 03:50:00,
2013-03-03 22:56:00,24.1,20.8,30.00,WNW,300,1.0,1.0,87,0.00,,,0.00,Wunderground v.1.13,2013-03-04 03:56:00,
2013-03-03 23:02:00,24.0,20.7,30.00,NNW,334,1.0,4.0,87,0.00,,,0.00,Wunderground v.1.13,2013-03-04 04:02:00,
2013-03-03 23:07:00,23.7,20.1,30.00,WNW,300,1.0,7.0,86,0.00,,,0.00,Wunderground v.1.13,2013-03-04 04:07:00,
2013-03-03 23:13:00,23.5,19.9,30.00,NW,315,1.0,7.0,86,0.00,,,0.00,Wunderground v.1.13,2013-03-04 04:13:00,
2013-03-03 23:19:00,23.3,19.5,30.00,NW,317,1.0,7.0,85,0.00,,,0.00,Wunderground v.1.13,2013-03-04 04:19:00,
2013-03-03 23:25:00,23.2,19.4,30.00,NW,311,1.0,1.0,85,0.00,,,0.00,Wunderground v.1.13,2013-03-04 04:25:00,
2013-03-03 23:31:00,23.1,19.3,30.00,NW,317,0.0,7.0,85,0.00,,,0.00,Wunderground v.1.13,2013-03-04 04:31:00,
2013-03-03 23:37:00,23.1,19.3,30.00,NW,317,0.0,7.0,85,0.00,,,0.00,Wunderground v.1.13,2013-03-04 04:37:00,
2013-03-03 23:43:00,23.1,19.3,30.00,NW,317,0.0,7.0,85,0.00,,,0.00,Wunderground v.1.13,2013-03-04 04:43:00,
2013-03-03 23:49:00,23.0,18.9,30.00,NW,317,0.0,7.0,84,0.00,,,0.00,Wunderground v.1.13,2013-03-04 04:49:00,
2013-03-03 23:54:00,23.0,18.9,30.00,NW,310,0.0,7.0,84,0.00,,,0.00,Wunderground v.1.13,2013-03-04 04:54:00,